sensor_id;sensor_type;location;lat;lon;timestamp;P1;durP1;ratioP1;P2;durP2;ratioP2
78799;SDS011;68148;55.328;86.106;2023-11-18T00:02:05;25.48;;;11.45;;
78799;SDS011;68148;55.328;86.106;2023-11-18T00:04:31;24.95;;;11.27;;
78799;SDS011;68148;55.328;86.106;2023-11-18T00:06:57;18.05;;;8.75;;
78799;SDS011;68148;55.328;86.106;2023-11-18T00:09:23;19.17;;;9.48;;
78799;SDS011;68148;55.328;86.106;2023-11-18T00:11:49;26.35;;;10.45;;
78799;SDS011;68148;55.328;86.106;2023-11-18T00:14:14;23.27;;;9.82;;
78799;SDS011;68148;55.328;86.106;2023-11-18T00:16:40;24.83;;;11.57;;
78799;SDS011;68148;55.328;86.106;2023-11-18T00:19:06;24.52;;;11.00;;
78799;SDS011;68148;55.328;86.106;2023-11-18T00:21:32;27.48;;;10.85;;
78799;SDS011;68148;55.328;86.106;2023-11-18T00:23:58;24.50;;;10.00;;
78799;SDS011;68148;55.328;86.106;2023-11-18T00:26:24;22.90;;;9.90;;
78799;SDS011;68148;55.328;86.106;2023-11-18T00:28:50;22.23;;;10.13;;
78799;SDS011;68148;55.328;86.106;2023-11-18T00:31:15;24.92;;;9.70;;
78799;SDS011;68148;55.328;86.106;2023-11-18T00:33:41;22.75;;;10.00;;
78799;SDS011;68148;55.328;86.106;2023-11-18T00:36:24;22.65;;;10.27;;
78799;SDS011;68148;55.328;86.106;2023-11-18T00:38:50;25.65;;;10.00;;
78799;SDS011;68148;55.328;86.106;2023-11-18T00:41:16;25.45;;;10.27;;
78799;SDS011;68148;55.328;86.106;2023-11-18T00:43:42;22.35;;;9.00;;
78799;SDS011;68148;55.328;86.106;2023-11-18T00:46:08;14.60;;;7.60;;
78799;SDS011;68148;55.328;86.106;2023-11-18T00:48:33;28.38;;;10.90;;
78799;SDS011;68148;55.328;86.106;2023-11-18T00:51:00;21.92;;;9.18;;
78799;SDS011;68148;55.328;86.106;2023-11-18T00:53:32;19.10;;;9.43;;
78799;SDS011;68148;55.328;86.106;2023-11-18T00:55:58;18.15;;;8.23;;
78799;SDS011;68148;55.328;86.106;2023-11-18T00:58:24;25.33;;;10.43;;
78799;SDS011;68148;55.328;86.106;2023-11-18T01:00:51;22.05;;;9.13;;
78799;SDS011;68148;55.328;86.106;2023-11-18T01:03:16;17.42;;;7.75;;
78799;SDS011;68148;55.328;86.106;2023-11-18T01:05:42;24.33;;;9.68;;
78799;SDS011;68148;55.328;86.106;2023-11-18T01:08:08;20.77;;;10.25;;
78799;SDS011;68148;55.328;86.106;2023-11-18T01:10:34;27.27;;;10.63;;
78799;SDS011;68148;55.328;86.106;2023-11-18T01:13:00;22.33;;;9.82;;
78799;SDS011;68148;55.328;86.106;2023-11-18T01:15:25;22.85;;;10.40;;
78799;SDS011;68148;55.328;86.106;2023-11-18T01:17:51;22.17;;;10.50;;
78799;SDS011;68148;55.328;86.106;2023-11-18T01:20:17;22.98;;;9.65;;
78799;SDS011;68148;55.328;86.106;2023-11-18T01:22:43;23.20;;;9.80;;
78799;SDS011;68148;55.328;86.106;2023-11-18T01:25:09;23.45;;;10.48;;
78799;SDS011;68148;55.328;86.106;2023-11-18T01:27:35;20.20;;;8.13;;
78799;SDS011;68148;55.328;86.106;2023-11-18T01:30:01;21.52;;;8.80;;
78799;SDS011;68148;55.328;86.106;2023-11-18T01:32:27;19.02;;;8.43;;
78799;SDS011;68148;55.328;86.106;2023-11-18T01:34:53;19.90;;;8.55;;
78799;SDS011;68148;55.328;86.106;2023-11-18T01:37:19;19.35;;;8.48;;
78799;SDS011;68148;55.328;86.106;2023-11-18T01:39:45;21.05;;;9.13;;
78799;SDS011;68148;55.328;86.106;2023-11-18T01:42:10;22.17;;;9.38;;
78799;SDS011;68148;55.328;86.106;2023-11-18T01:44:36;22.50;;;8.50;;
78799;SDS011;68148;55.328;86.106;2023-11-18T01:47:02;19.25;;;8.77;;
78799;SDS011;68148;55.328;86.106;2023-11-18T01:49:29;17.75;;;8.30;;
78799;SDS011;68148;55.328;86.106;2023-11-18T01:51:55;22.00;;;8.65;;
78799;SDS011;68148;55.328;86.106;2023-11-18T01:54:23;19.35;;;8.07;;
78799;SDS011;68148;55.328;86.106;2023-11-18T01:56:49;18.05;;;8.88;;
78799;SDS011;68148;55.328;86.106;2023-11-18T01:59:16;17.98;;;8.02;;
78799;SDS011;68148;55.328;86.106;2023-11-18T02:01:42;17.50;;;7.32;;
78799;SDS011;68148;55.328;86.106;2023-11-18T02:04:08;19.63;;;8.27;;
78799;SDS011;68148;55.328;86.106;2023-11-18T02:06:33;21.50;;;8.77;;
78799;SDS011;68148;55.328;86.106;2023-11-18T02:08:59;18.75;;;7.10;;
78799;SDS011;68148;55.328;86.106;2023-11-18T02:11:30;20.42;;;8.05;;
78799;SDS011;68148;55.328;86.106;2023-11-18T02:14:01;16.70;;;7.63;;
78799;SDS011;68148;55.328;86.106;2023-11-18T02:16:30;17.95;;;8.60;;
78799;SDS011;68148;55.328;86.106;2023-11-18T02:18:57;20.35;;;7.93;;
78799;SDS011;68148;55.328;86.106;2023-11-18T02:21:25;15.98;;;6.75;;
78799;SDS011;68148;55.328;86.106;2023-11-18T02:23:52;20.92;;;8.57;;
78799;SDS011;68148;55.328;86.106;2023-11-18T02:26:22;20.55;;;9.32;;
78799;SDS011;68148;55.328;86.106;2023-11-18T02:29:08;19.38;;;7.68;;
78799;SDS011;68148;55.328;86.106;2023-11-18T02:31:34;20.50;;;7.85;;
78799;SDS011;68148;55.328;86.106;2023-11-18T02:34:02;22.23;;;7.43;;
78799;SDS011;68148;55.328;86.106;2023-11-18T02:36:39;17.50;;;6.95;;
78799;SDS011;68148;55.328;86.106;2023-11-18T02:39:12;18.35;;;8.05;;
78799;SDS011;68148;55.328;86.106;2023-11-18T02:41:47;19.63;;;7.28;;
78799;SDS011;68148;55.328;86.106;2023-11-18T02:44:18;20.20;;;8.48;;
78799;SDS011;68148;55.328;86.106;2023-11-18T02:46:45;23.67;;;8.13;;
78799;SDS011;68148;55.328;86.106;2023-11-18T02:49:11;21.75;;;8.82;;
78799;SDS011;68148;55.328;86.106;2023-11-18T02:51:36;20.35;;;8.48;;
78799;SDS011;68148;55.328;86.106;2023-11-18T02:54:02;21.45;;;8.32;;
78799;SDS011;68148;55.328;86.106;2023-11-18T02:56:28;23.83;;;9.45;;
78799;SDS011;68148;55.328;86.106;2023-11-18T02:58:54;21.20;;;7.68;;
78799;SDS011;68148;55.328;86.106;2023-11-18T03:01:20;21.23;;;8.50;;
78799;SDS011;68148;55.328;86.106;2023-11-18T03:03:45;19.75;;;6.88;;
78799;SDS011;68148;55.328;86.106;2023-11-18T03:06:11;22.08;;;8.68;;
78799;SDS011;68148;55.328;86.106;2023-11-18T03:08:37;21.13;;;8.38;;
78799;SDS011;68148;55.328;86.106;2023-11-18T03:11:03;22.77;;;8.30;;
78799;SDS011;68148;55.328;86.106;2023-11-18T03:13:29;23.92;;;9.30;;
78799;SDS011;68148;55.328;86.106;2023-11-18T03:15:55;22.60;;;9.30;;
78799;SDS011;68148;55.328;86.106;2023-11-18T03:18:20;25.73;;;8.85;;
78799;SDS011;68148;55.328;86.106;2023-11-18T03:20:46;26.42;;;9.35;;
78799;SDS011;68148;55.328;86.106;2023-11-18T03:23:12;22.83;;;10.00;;
78799;SDS011;68148;55.328;86.106;2023-11-18T03:25:37;30.63;;;10.02;;
78799;SDS011;68148;55.328;86.106;2023-11-18T03:28:03;22.83;;;8.90;;
78799;SDS011;68148;55.328;86.106;2023-11-18T03:30:29;24.10;;;8.80;;
78799;SDS011;68148;55.328;86.106;2023-11-18T03:32:55;26.13;;;8.75;;
78799;SDS011;68148;55.328;86.106;2023-11-18T03:35:20;26.38;;;9.85;;
78799;SDS011;68148;55.328;86.106;2023-11-18T03:37:46;21.88;;;9.15;;
78799;SDS011;68148;55.328;86.106;2023-11-18T03:40:13;21.27;;;9.48;;
78799;SDS011;68148;55.328;86.106;2023-11-18T03:42:39;24.42;;;9.00;;
78799;SDS011;68148;55.328;86.106;2023-11-18T03:45:08;28.55;;;10.40;;
78799;SDS011;68148;55.328;86.106;2023-11-18T03:47:34;23.45;;;9.02;;
78799;SDS011;68148;55.328;86.106;2023-11-18T03:50:00;29.08;;;9.23;;
78799;SDS011;68148;55.328;86.106;2023-11-18T03:52:26;29.90;;;9.95;;
78799;SDS011;68148;55.328;86.106;2023-11-18T03:54:52;32.53;;;10.55;;
78799;SDS011;68148;55.328;86.106;2023-11-18T03:57:18;33.28;;;10.90;;
78799;SDS011;68148;55.328;86.106;2023-11-18T03:59:44;25.90;;;9.57;;
78799;SDS011;68148;55.328;86.106;2023-11-18T04:02:10;29.13;;;9.98;;
78799;SDS011;68148;55.328;86.106;2023-11-18T04:04:35;29.92;;;10.38;;
78799;SDS011;68148;55.328;86.106;2023-11-18T04:07:02;25.60;;;9.68;;
78799;SDS011;68148;55.328;86.106;2023-11-18T04:09:28;30.60;;;10.38;;
78799;SDS011;68148;55.328;86.106;2023-11-18T04:11:53;34.83;;;11.25;;
78799;SDS011;68148;55.328;86.106;2023-11-18T04:14:19;31.02;;;10.45;;
78799;SDS011;68148;55.328;86.106;2023-11-18T04:16:45;31.13;;;10.57;;
78799;SDS011;68148;55.328;86.106;2023-11-18T04:19:11;34.85;;;11.85;;
78799;SDS011;68148;55.328;86.106;2023-11-18T04:21:37;30.35;;;10.45;;
78799;SDS011;68148;55.328;86.106;2023-11-18T04:24:02;30.63;;;10.45;;
78799;SDS011;68148;55.328;86.106;2023-11-18T04:26:28;37.60;;;10.50;;
78799;SDS011;68148;55.328;86.106;2023-11-18T04:28:54;34.13;;;10.63;;
78799;SDS011;68148;55.328;86.106;2023-11-18T04:31:20;31.88;;;9.93;;
78799;SDS011;68148;55.328;86.106;2023-11-18T04:33:45;36.95;;;11.45;;
78799;SDS011;68148;55.328;86.106;2023-11-18T04:36:11;32.83;;;10.23;;
78799;SDS011;68148;55.328;86.106;2023-11-18T04:38:37;34.10;;;10.57;;
78799;SDS011;68148;55.328;86.106;2023-11-18T04:41:03;35.10;;;10.80;;
78799;SDS011;68148;55.328;86.106;2023-11-18T04:43:29;36.80;;;11.18;;
78799;SDS011;68148;55.328;86.106;2023-11-18T04:45:55;45.70;;;11.75;;
78799;SDS011;68148;55.328;86.106;2023-11-18T04:48:21;31.00;;;9.80;;
78799;SDS011;68148;55.328;86.106;2023-11-18T04:50:47;36.67;;;12.15;;
78799;SDS011;68148;55.328;86.106;2023-11-18T04:53:12;31.13;;;10.45;;
78799;SDS011;68148;55.328;86.106;2023-11-18T04:55:38;35.33;;;11.00;;
78799;SDS011;68148;55.328;86.106;2023-11-18T04:58:05;37.28;;;11.05;;
78799;SDS011;68148;55.328;86.106;2023-11-18T05:00:33;33.92;;;10.75;;
78799;SDS011;68148;55.328;86.106;2023-11-18T05:02:59;39.03;;;10.73;;
78799;SDS011;68148;55.328;86.106;2023-11-18T05:05:25;39.00;;;12.15;;
78799;SDS011;68148;55.328;86.106;2023-11-18T05:07:51;40.20;;;11.93;;
78799;SDS011;68148;55.328;86.106;2023-11-18T05:10:16;44.80;;;12.25;;
78799;SDS011;68148;55.328;86.106;2023-11-18T05:12:43;35.60;;;9.80;;
78799;SDS011;68148;55.328;86.106;2023-11-18T05:15:09;35.70;;;11.27;;
78799;SDS011;68148;55.328;86.106;2023-11-18T05:17:36;36.55;;;12.15;;
78799;SDS011;68148;55.328;86.106;2023-11-18T05:20:02;39.13;;;11.82;;
78799;SDS011;68148;55.328;86.106;2023-11-18T05:22:29;32.58;;;9.90;;
78799;SDS011;68148;55.328;86.106;2023-11-18T05:24:54;37.20;;;12.35;;
78799;SDS011;68148;55.328;86.106;2023-11-18T05:27:20;42.25;;;13.27;;
78799;SDS011;68148;55.328;86.106;2023-11-18T05:29:46;34.13;;;11.98;;
78799;SDS011;68148;55.328;86.106;2023-11-18T05:32:11;39.78;;;12.18;;
78799;SDS011;68148;55.328;86.106;2023-11-18T05:34:37;31.00;;;11.15;;
78799;SDS011;68148;55.328;86.106;2023-11-18T05:37:03;39.08;;;11.75;;
78799;SDS011;68148;55.328;86.106;2023-11-18T05:39:29;30.67;;;10.00;;
78799;SDS011;68148;55.328;86.106;2023-11-18T05:41:55;32.40;;;12.30;;
78799;SDS011;68148;55.328;86.106;2023-11-18T05:44:22;18.38;;;7.97;;
78799;SDS011;68148;55.328;86.106;2023-11-18T05:46:47;38.55;;;13.02;;
78799;SDS011;68148;55.328;86.106;2023-11-18T05:49:22;33.45;;;12.05;;
78799;SDS011;68148;55.328;86.106;2023-11-18T05:51:48;41.45;;;13.13;;
78799;SDS011;68148;55.328;86.106;2023-11-18T05:54:14;37.45;;;12.73;;
78799;SDS011;68148;55.328;86.106;2023-11-18T05:56:39;29.95;;;12.00;;
78799;SDS011;68148;55.328;86.106;2023-11-18T05:59:05;39.20;;;12.57;;
78799;SDS011;68148;55.328;86.106;2023-11-18T06:01:31;29.73;;;11.68;;
78799;SDS011;68148;55.328;86.106;2023-11-18T06:03:57;35.80;;;12.20;;
78799;SDS011;68148;55.328;86.106;2023-11-18T06:06:23;32.85;;;11.85;;
78799;SDS011;68148;55.328;86.106;2023-11-18T06:08:49;38.58;;;12.52;;
78799;SDS011;68148;55.328;86.106;2023-11-18T06:11:15;34.63;;;12.10;;
78799;SDS011;68148;55.328;86.106;2023-11-18T06:13:41;27.45;;;10.02;;
78799;SDS011;68148;55.328;86.106;2023-11-18T06:16:12;34.60;;;11.45;;
78799;SDS011;68148;55.328;86.106;2023-11-18T06:18:39;34.90;;;11.88;;
78799;SDS011;68148;55.328;86.106;2023-11-18T06:21:06;40.65;;;14.20;;
78799;SDS011;68148;55.328;86.106;2023-11-18T06:23:31;37.65;;;12.52;;
78799;SDS011;68148;55.328;86.106;2023-11-18T06:25:57;35.80;;;13.18;;
78799;SDS011;68148;55.328;86.106;2023-11-18T06:28:23;36.63;;;12.45;;
78799;SDS011;68148;55.328;86.106;2023-11-18T06:30:49;37.45;;;12.48;;
78799;SDS011;68148;55.328;86.106;2023-11-18T06:33:15;31.45;;;12.55;;
78799;SDS011;68148;55.328;86.106;2023-11-18T06:35:40;33.53;;;12.27;;
78799;SDS011;68148;55.328;86.106;2023-11-18T06:38:06;37.95;;;12.90;;
78799;SDS011;68148;55.328;86.106;2023-11-18T06:40:32;29.02;;;12.25;;
78799;SDS011;68148;55.328;86.106;2023-11-18T06:42:58;41.47;;;13.48;;
78799;SDS011;68148;55.328;86.106;2023-11-18T06:45:24;34.75;;;12.05;;
78799;SDS011;68148;55.328;86.106;2023-11-18T06:47:49;30.10;;;11.77;;
78799;SDS011;68148;55.328;86.106;2023-11-18T06:50:15;42.45;;;13.40;;
78799;SDS011;68148;55.328;86.106;2023-11-18T06:52:41;40.47;;;14.07;;
78799;SDS011;68148;55.328;86.106;2023-11-18T06:55:07;38.15;;;13.68;;
78799;SDS011;68148;55.328;86.106;2023-11-18T06:57:33;36.92;;;14.55;;
78799;SDS011;68148;55.328;86.106;2023-11-18T07:00:00;39.20;;;14.23;;
78799;SDS011;68148;55.328;86.106;2023-11-18T07:02:26;33.72;;;13.75;;
78799;SDS011;68148;55.328;86.106;2023-11-18T07:04:52;43.45;;;13.80;;
78799;SDS011;68148;55.328;86.106;2023-11-18T07:07:18;30.30;;;13.07;;
78799;SDS011;68148;55.328;86.106;2023-11-18T07:09:44;41.55;;;13.90;;
78799;SDS011;68148;55.328;86.106;2023-11-18T07:12:10;40.05;;;12.75;;
78799;SDS011;68148;55.328;86.106;2023-11-18T07:14:36;41.38;;;12.23;;
78799;SDS011;68148;55.328;86.106;2023-11-18T07:17:01;40.67;;;13.65;;
78799;SDS011;68148;55.328;86.106;2023-11-18T07:19:27;28.88;;;11.45;;
78799;SDS011;68148;55.328;86.106;2023-11-18T07:21:53;30.73;;;11.73;;
78799;SDS011;68148;55.328;86.106;2023-11-18T07:24:19;27.80;;;12.02;;
78799;SDS011;68148;55.328;86.106;2023-11-18T07:26:45;32.45;;;13.02;;
78799;SDS011;68148;55.328;86.106;2023-11-18T07:29:11;32.15;;;12.68;;
78799;SDS011;68148;55.328;86.106;2023-11-18T07:31:37;32.15;;;12.98;;
78799;SDS011;68148;55.328;86.106;2023-11-18T07:34:03;32.55;;;13.10;;
78799;SDS011;68148;55.328;86.106;2023-11-18T07:36:29;41.88;;;14.45;;
78799;SDS011;68148;55.328;86.106;2023-11-18T07:38:55;41.85;;;14.52;;
78799;SDS011;68148;55.328;86.106;2023-11-18T07:41:21;36.60;;;12.07;;
78799;SDS011;68148;55.328;86.106;2023-11-18T07:43:47;31.45;;;12.40;;
78799;SDS011;68148;55.328;86.106;2023-11-18T07:46:12;27.73;;;11.32;;
78799;SDS011;68148;55.328;86.106;2023-11-18T07:48:38;36.38;;;13.57;;
78799;SDS011;68148;55.328;86.106;2023-11-18T07:51:04;25.73;;;12.13;;
78799;SDS011;68148;55.328;86.106;2023-11-18T07:53:30;32.67;;;12.52;;
78799;SDS011;68148;55.328;86.106;2023-11-18T07:55:56;30.70;;;12.63;;
78799;SDS011;68148;55.328;86.106;2023-11-18T07:58:22;35.00;;;11.65;;
78799;SDS011;68148;55.328;86.106;2023-11-18T08:00:47;28.45;;;12.13;;
78799;SDS011;68148;55.328;86.106;2023-11-18T08:03:14;26.98;;;10.75;;
78799;SDS011;68148;55.328;86.106;2023-11-18T08:05:40;27.00;;;10.38;;
78799;SDS011;68148;55.328;86.106;2023-11-18T08:08:07;24.98;;;12.13;;
78799;SDS011;68148;55.328;86.106;2023-11-18T08:10:37;22.85;;;9.90;;
78799;SDS011;68148;55.328;86.106;2023-11-18T08:13:04;26.65;;;10.60;;
78799;SDS011;68148;55.328;86.106;2023-11-18T08:15:30;26.80;;;9.45;;
78799;SDS011;68148;55.328;86.106;2023-11-18T08:17:57;21.10;;;9.68;;
78799;SDS011;68148;55.328;86.106;2023-11-18T08:20:22;29.83;;;9.68;;
78799;SDS011;68148;55.328;86.106;2023-11-18T08:22:48;26.05;;;11.02;;
78799;SDS011;68148;55.328;86.106;2023-11-18T08:25:14;32.28;;;12.80;;
78799;SDS011;68148;55.328;86.106;2023-11-18T08:27:46;30.77;;;11.20;;
78799;SDS011;68148;55.328;86.106;2023-11-18T08:30:12;33.22;;;13.60;;
78799;SDS011;68148;55.328;86.106;2023-11-18T08:32:38;30.15;;;11.10;;
78799;SDS011;68148;55.328;86.106;2023-11-18T08:35:06;41.13;;;13.98;;
78799;SDS011;68148;55.328;86.106;2023-11-18T08:37:32;31.80;;;13.45;;
78799;SDS011;68148;55.328;86.106;2023-11-18T08:39:58;37.00;;;12.48;;
78799;SDS011;68148;55.328;86.106;2023-11-18T08:42:26;32.22;;;13.15;;
78799;SDS011;68148;55.328;86.106;2023-11-18T08:44:52;33.33;;;11.70;;
78799;SDS011;68148;55.328;86.106;2023-11-18T08:47:18;39.28;;;13.30;;
78799;SDS011;68148;55.328;86.106;2023-11-18T08:49:44;36.50;;;14.05;;
78799;SDS011;68148;55.328;86.106;2023-11-18T08:52:10;32.92;;;12.57;;
78799;SDS011;68148;55.328;86.106;2023-11-18T08:54:35;22.65;;;9.60;;
78799;SDS011;68148;55.328;86.106;2023-11-18T08:57:07;25.55;;;8.88;;
78799;SDS011;68148;55.328;86.106;2023-11-18T08:59:35;27.60;;;11.10;;
78799;SDS011;68148;55.328;86.106;2023-11-18T09:02:04;26.45;;;10.60;;
78799;SDS011;68148;55.328;86.106;2023-11-18T09:04:33;27.75;;;11.05;;
78799;SDS011;68148;55.328;86.106;2023-11-18T09:06:58;18.10;;;7.43;;
78799;SDS011;68148;55.328;86.106;2023-11-18T09:09:24;27.08;;;10.00;;
78799;SDS011;68148;55.328;86.106;2023-11-18T09:11:50;24.73;;;9.20;;
78799;SDS011;68148;55.328;86.106;2023-11-18T09:14:17;20.95;;;9.18;;
78799;SDS011;68148;55.328;86.106;2023-11-18T09:16:43;28.40;;;11.25;;
78799;SDS011;68148;55.328;86.106;2023-11-18T09:19:09;23.75;;;10.60;;
78799;SDS011;68148;55.328;86.106;2023-11-18T09:21:35;27.02;;;11.00;;
78799;SDS011;68148;55.328;86.106;2023-11-18T09:24:01;27.88;;;11.18;;
78799;SDS011;68148;55.328;86.106;2023-11-18T09:26:27;18.95;;;8.38;;
78799;SDS011;68148;55.328;86.106;2023-11-18T09:28:53;26.55;;;11.38;;
78799;SDS011;68148;55.328;86.106;2023-11-18T09:31:18;34.47;;;13.88;;
78799;SDS011;68148;55.328;86.106;2023-11-18T09:33:44;33.83;;;13.38;;
78799;SDS011;68148;55.328;86.106;2023-11-18T09:36:10;28.40;;;11.48;;
78799;SDS011;68148;55.328;86.106;2023-11-18T09:38:37;26.90;;;11.90;;
78799;SDS011;68148;55.328;86.106;2023-11-18T09:41:04;19.73;;;9.10;;
78799;SDS011;68148;55.328;86.106;2023-11-18T09:43:30;28.08;;;12.02;;
78799;SDS011;68148;55.328;86.106;2023-11-18T09:45:57;31.73;;;12.15;;
78799;SDS011;68148;55.328;86.106;2023-11-18T09:48:29;29.08;;;12.10;;
78799;SDS011;68148;55.328;86.106;2023-11-18T09:50:57;23.20;;;10.43;;
78799;SDS011;68148;55.328;86.106;2023-11-18T09:53:28;27.27;;;11.73;;
78799;SDS011;68148;55.328;86.106;2023-11-18T09:55:59;33.10;;;12.40;;
78799;SDS011;68148;55.328;86.106;2023-11-18T09:58:36;33.78;;;12.68;;
78799;SDS011;68148;55.328;86.106;2023-11-18T10:01:10;33.67;;;14.77;;
78799;SDS011;68148;55.328;86.106;2023-11-18T10:03:37;24.83;;;12.32;;
78799;SDS011;68148;55.328;86.106;2023-11-18T10:06:03;31.63;;;13.63;;
78799;SDS011;68148;55.328;86.106;2023-11-18T10:08:29;30.65;;;11.70;;
78799;SDS011;68148;55.328;86.106;2023-11-18T10:10:56;27.85;;;12.00;;
78799;SDS011;68148;55.328;86.106;2023-11-18T10:13:22;25.20;;;9.75;;
78799;SDS011;68148;55.328;86.106;2023-11-18T10:15:49;24.25;;;10.82;;
78799;SDS011;68148;55.328;86.106;2023-11-18T10:18:18;23.60;;;9.88;;
78799;SDS011;68148;55.328;86.106;2023-11-18T10:20:44;25.45;;;10.30;;
78799;SDS011;68148;55.328;86.106;2023-11-18T10:23:12;19.77;;;8.85;;
78799;SDS011;68148;55.328;86.106;2023-11-18T10:25:45;24.52;;;9.73;;
78799;SDS011;68148;55.328;86.106;2023-11-18T10:28:23;18.70;;;8.27;;
78799;SDS011;68148;55.328;86.106;2023-11-18T10:30:55;19.25;;;9.30;;
78799;SDS011;68148;55.328;86.106;2023-11-18T10:33:22;20.67;;;9.60;;
78799;SDS011;68148;55.328;86.106;2023-11-18T10:35:48;23.00;;;9.68;;
78799;SDS011;68148;55.328;86.106;2023-11-18T10:38:18;21.27;;;9.13;;
78799;SDS011;68148;55.328;86.106;2023-11-18T10:40:44;22.83;;;9.85;;
78799;SDS011;68148;55.328;86.106;2023-11-18T10:43:10;21.48;;;9.00;;
78799;SDS011;68148;55.328;86.106;2023-11-18T10:45:36;20.92;;;8.52;;
78799;SDS011;68148;55.328;86.106;2023-11-18T10:48:02;26.05;;;9.07;;
78799;SDS011;68148;55.328;86.106;2023-11-18T10:50:28;23.90;;;9.02;;
78799;SDS011;68148;55.328;86.106;2023-11-18T10:52:55;19.35;;;7.55;;
78799;SDS011;68148;55.328;86.106;2023-11-18T10:55:26;23.63;;;9.00;;
78799;SDS011;68148;55.328;86.106;2023-11-18T10:58:03;25.20;;;9.77;;
78799;SDS011;68148;55.328;86.106;2023-11-18T11:00:50;20.52;;;9.40;;
78799;SDS011;68148;55.328;86.106;2023-11-18T11:03:17;22.55;;;8.63;;
78799;SDS011;68148;55.328;86.106;2023-11-18T11:05:43;35.60;;;9.57;;
78799;SDS011;68148;55.328;86.106;2023-11-18T11:08:09;22.90;;;10.68;;
78799;SDS011;68148;55.328;86.106;2023-11-18T11:10:42;26.23;;;8.75;;
78799;SDS011;68148;55.328;86.106;2023-11-18T11:13:08;22.83;;;8.25;;
78799;SDS011;68148;55.328;86.106;2023-11-18T11:15:36;23.85;;;8.80;;
78799;SDS011;68148;55.328;86.106;2023-11-18T11:18:08;17.38;;;7.85;;
78799;SDS011;68148;55.328;86.106;2023-11-18T11:20:39;20.83;;;8.90;;
78799;SDS011;68148;55.328;86.106;2023-11-18T11:26:02;24.25;;;8.68;;
78799;SDS011;68148;55.328;86.106;2023-11-18T11:34:04;16.95;;;7.10;;
78799;SDS011;68148;55.328;86.106;2023-11-18T11:36:41;21.73;;;9.48;;
78799;SDS011;68148;55.328;86.106;2023-11-18T11:39:10;21.30;;;9.05;;
78799;SDS011;68148;55.328;86.106;2023-11-18T11:41:36;21.48;;;8.82;;
78799;SDS011;68148;55.328;86.106;2023-11-18T11:44:03;20.55;;;8.85;;
78799;SDS011;68148;55.328;86.106;2023-11-18T11:46:30;22.17;;;9.23;;
78799;SDS011;68148;55.328;86.106;2023-11-18T11:48:56;25.58;;;9.73;;
78799;SDS011;68148;55.328;86.106;2023-11-18T11:51:29;24.27;;;8.98;;
78799;SDS011;68148;55.328;86.106;2023-11-18T11:56:44;20.52;;;7.28;;
78799;SDS011;68148;55.328;86.106;2023-11-18T11:59:11;17.63;;;7.15;;
78799;SDS011;68148;55.328;86.106;2023-11-18T12:01:36;18.90;;;7.10;;
78799;SDS011;68148;55.328;86.106;2023-11-18T12:04:08;16.80;;;7.07;;
78799;SDS011;68148;55.328;86.106;2023-11-18T12:06:37;19.67;;;6.45;;
78799;SDS011;68148;55.328;86.106;2023-11-18T12:09:08;21.40;;;6.05;;
78799;SDS011;68148;55.328;86.106;2023-11-18T12:11:35;16.45;;;6.03;;
78799;SDS011;68148;55.328;86.106;2023-11-18T12:14:08;17.70;;;6.65;;
78799;SDS011;68148;55.328;86.106;2023-11-18T12:19:34;14.65;;;6.20;;
78799;SDS011;68148;55.328;86.106;2023-11-18T12:22:04;16.42;;;6.40;;
78799;SDS011;68148;55.328;86.106;2023-11-18T12:24:29;21.73;;;6.10;;
78799;SDS011;68148;55.328;86.106;2023-11-18T12:26:55;20.70;;;6.30;;
78799;SDS011;68148;55.328;86.106;2023-11-18T12:29:31;14.70;;;5.32;;
78799;SDS011;68148;55.328;86.106;2023-11-18T12:31:57;17.45;;;6.35;;
78799;SDS011;68148;55.328;86.106;2023-11-18T12:34:23;13.70;;;5.65;;
78799;SDS011;68148;55.328;86.106;2023-11-18T12:43:07;15.77;;;5.68;;
78799;SDS011;68148;55.328;86.106;2023-11-18T12:45:43;21.75;;;5.75;;
78799;SDS011;68148;55.328;86.106;2023-11-18T12:48:20;11.20;;;4.32;;
78799;SDS011;68148;55.328;86.106;2023-11-18T12:50:46;15.65;;;5.55;;
78799;SDS011;68148;55.328;86.106;2023-11-18T12:53:12;21.23;;;5.38;;
78799;SDS011;68148;55.328;86.106;2023-11-18T12:55:37;13.73;;;4.53;;
78799;SDS011;68148;55.328;86.106;2023-11-18T12:58:05;13.98;;;4.53;;
78799;SDS011;68148;55.328;86.106;2023-11-18T13:00:31;20.08;;;5.53;;
78799;SDS011;68148;55.328;86.106;2023-11-18T13:02:57;20.17;;;4.93;;
78799;SDS011;68148;55.328;86.106;2023-11-18T13:05:23;14.02;;;4.15;;
78799;SDS011;68148;55.328;86.106;2023-11-18T13:07:49;16.65;;;4.95;;
78799;SDS011;68148;55.328;86.106;2023-11-18T13:10:16;16.00;;;4.70;;
78799;SDS011;68148;55.328;86.106;2023-11-18T13:12:42;13.52;;;4.25;;
78799;SDS011;68148;55.328;86.106;2023-11-18T13:15:09;12.07;;;4.47;;
78799;SDS011;68148;55.328;86.106;2023-11-18T13:17:35;17.13;;;5.00;;
78799;SDS011;68148;55.328;86.106;2023-11-18T13:20:13;10.20;;;3.47;;
78799;SDS011;68148;55.328;86.106;2023-11-18T13:22:41;14.38;;;4.68;;
78799;SDS011;68148;55.328;86.106;2023-11-18T13:25:08;18.83;;;4.90;;
78799;SDS011;68148;55.328;86.106;2023-11-18T13:27:34;9.38;;;4.07;;
78799;SDS011;68148;55.328;86.106;2023-11-18T13:30:00;14.70;;;4.97;;
78799;SDS011;68148;55.328;86.106;2023-11-18T13:32:28;17.73;;;3.83;;
78799;SDS011;68148;55.328;86.106;2023-11-18T13:34:54;12.57;;;4.43;;
78799;SDS011;68148;55.328;86.106;2023-11-18T13:37:20;20.88;;;5.72;;
78799;SDS011;68148;55.328;86.106;2023-11-18T13:39:47;14.10;;;5.28;;
78799;SDS011;68148;55.328;86.106;2023-11-18T13:42:22;14.73;;;4.63;;
78799;SDS011;68148;55.328;86.106;2023-11-18T13:44:51;14.63;;;5.25;;
78799;SDS011;68148;55.328;86.106;2023-11-18T13:47:17;12.23;;;4.28;;
78799;SDS011;68148;55.328;86.106;2023-11-18T13:49:43;18.92;;;4.82;;
78799;SDS011;68148;55.328;86.106;2023-11-18T13:52:09;15.23;;;3.97;;
78799;SDS011;68148;55.328;86.106;2023-11-18T13:54:36;14.20;;;4.72;;
78799;SDS011;68148;55.328;86.106;2023-11-18T13:57:04;14.52;;;5.18;;
78799;SDS011;68148;55.328;86.106;2023-11-18T13:59:30;19.42;;;4.65;;
78799;SDS011;68148;55.328;86.106;2023-11-18T14:01:57;19.33;;;5.82;;
78799;SDS011;68148;55.328;86.106;2023-11-18T14:04:26;22.73;;;5.57;;
78799;SDS011;68148;55.328;86.106;2023-11-18T14:06:53;15.05;;;4.60;;
78799;SDS011;68148;55.328;86.106;2023-11-18T14:09:22;15.63;;;4.72;;
78799;SDS011;68148;55.328;86.106;2023-11-18T14:11:52;11.68;;;4.15;;
78799;SDS011;68148;55.328;86.106;2023-11-18T14:14:19;17.58;;;4.93;;
78799;SDS011;68148;55.328;86.106;2023-11-18T14:16:45;22.02;;;4.68;;
78799;SDS011;68148;55.328;86.106;2023-11-18T14:19:11;17.15;;;5.72;;
78799;SDS011;68148;55.328;86.106;2023-11-18T14:21:37;18.20;;;5.30;;
78799;SDS011;68148;55.328;86.106;2023-11-18T14:24:02;23.95;;;4.80;;
78799;SDS011;68148;55.328;86.106;2023-11-18T14:26:28;12.77;;;4.60;;
78799;SDS011;68148;55.328;86.106;2023-11-18T14:28:54;15.98;;;4.97;;
78799;SDS011;68148;55.328;86.106;2023-11-18T14:31:20;12.82;;;4.60;;
78799;SDS011;68148;55.328;86.106;2023-11-18T14:33:47;15.68;;;4.75;;
78799;SDS011;68148;55.328;86.106;2023-11-18T14:36:13;15.20;;;5.22;;